09:36
Airports
Links
Donate
Help keep this website running!
PayPal
Bitcoin
METAR
KLAX 200853Z 30009KT 10SM CLR 09/M08 A3007 RMK AO2 SLP183 T00941078 51018
Current Weather Conditions at KLAX
VFR 08:53:00 20-02-18
Automated station
Altimeter:30.07 hg
Temp:9.4°c 48°f
Dew point:-7.8°c 19°f
Wind:9 knots, 10.4 mph, 5 m/s, from 300°
Visibility:10.0 statute miles
(CLR) Clear
Past METAR reports
VFR 07:53:00 20-02-18
Automated station
Altimeter:30.07 hg
Temp:10.0°c 50°f
Dew point:-8.3°c 18°f
Wind:9 knots, 10.4 mph, 5 m/s, from 320°
Visibility:10.0 statute miles
(CLR) Clear
KLAX 200753Z 32009KT 10SM CLR 10/M08 A3007 RMK AO2 SLP181 T01001083 401500094
VFR 06:53:00 20-02-18
Automated station
Altimeter:30.04 hg
Temp:10.0°c 50°f
Dew point:-8.3°c 18°f
Wind:10 knots, 11.5 mph, 5 m/s, from 350°
Visibility:10.0 statute miles
(CLR) Clear
KLAX 200653Z 35010KT 10SM CLR 10/M08 A3004 RMK AO2 SLP171 T01001083
VFR 05:53:00 20-02-18
Automated station
Altimeter:30.02 hg
Temp:10.0°c 50°f
Dew point:-8.3°c 18°f
Wind:8 knots, 9.2 mph, 4 m/s, from 340°
Visibility:10.0 statute miles
(CLR) Clear
KLAX 200553Z 34008G15KT 10SM CLR 10/M08 A3002 RMK AO2 SLP164 60000 T01001083 10139 20100 51021
VFR 04:53:00 20-02-18
Automated station
Altimeter:30.00 hg
Temp:10.0°c 50°f
Dew point:-7.8°c 19°f
Wind:8 knots, 9.2 mph, 4 m/s, from 340°
Visibility:10.0 statute miles
(CLR) Clear
KLAX 200453Z 34008KT 10SM CLR 10/M08 A3000 RMK AO2 SLP159 T01001078
VFR 03:53:00 20-02-18
Automated station
Altimeter:29.98 hg
Temp:10.6°c 50°f
Dew point:-8.9°c 18°f
Wind:7 knots, 8.1 mph, 4 m/s, from 340°
Visibility:10.0 statute miles
(CLR) Clear
KLAX 200353Z 34007KT 10SM CLR 11/M09 A2998 RMK AO2 SLP152 T01061089
TAF
KLAX 200906Z 2009/2112 34008KT P6SM SKC FM201300 04004KT P6SM SKC FM202000 26012KT P6SM SKC FM210300 29006KT P6SM SKC FM210600 VRB03KT P6SM SKC
Forecast at KLAX
09:00 20-02-18 to 13:00 20-02-18
Wind:8 Knots from 340°
Visibility:6.21 statute miles
SKC Clear
FM 13:00 20-02-18 to 20:00 20-02-18
Wind:4 Knots from 40°
Visibility:6.21 statute miles
SKC Clear
FM 20:00 20-02-18 to 03:00 21-02-18
Wind:12 Knots from 260°
Visibility:6.21 statute miles
SKC Clear
FM 03:00 21-02-18 to 06:00 21-02-18
Wind:6 Knots from 290°
Visibility:6.21 statute miles
SKC Clear
FM 06:00 21-02-18 to 12:00 21-02-18
Wind:3 Knots from 360°
Visibility:6.21 statute miles
SKC Clear